sensor_id;sensor_type;location;lat;lon;timestamp;temperature;humidity
4295;DHT22;2161;53.634;10.100;2023-04-01T00:00:58;11.50;99.90
4295;DHT22;2161;53.634;10.100;2023-04-01T00:03:24;11.40;99.90
4295;DHT22;2161;53.634;10.100;2023-04-01T00:05:51;11.50;99.90
4295;DHT22;2161;53.634;10.100;2023-04-01T00:08:17;11.50;99.90
4295;DHT22;2161;53.634;10.100;2023-04-01T00:10:43;11.50;99.90
4295;DHT22;2161;53.634;10.100;2023-04-01T00:13:09;11.40;99.90
4295;DHT22;2161;53.634;10.100;2023-04-01T00:15:35;11.30;99.90
4295;DHT22;2161;53.634;10.100;2023-04-01T00:18:01;11.40;99.90
4295;DHT22;2161;53.634;10.100;2023-04-01T00:20:27;11.30;99.90
4295;DHT22;2161;53.634;10.100;2023-04-01T00:22:53;11.10;99.90
4295;DHT22;2161;53.634;10.100;2023-04-01T00:25:19;11.20;99.90
4295;DHT22;2161;53.634;10.100;2023-04-01T00:27:44;11.30;99.90
4295;DHT22;2161;53.634;10.100;2023-04-01T00:30:11;11.40;99.90
4295;DHT22;2161;53.634;10.100;2023-04-01T00:32:36;11.40;99.90
4295;DHT22;2161;53.634;10.100;2023-04-01T00:35:03;11.50;99.90
4295;DHT22;2161;53.634;10.100;2023-04-01T00:37:29;11.50;99.90
4295;DHT22;2161;53.634;10.100;2023-04-01T00:39:55;11.30;99.90
4295;DHT22;2161;53.634;10.100;2023-04-01T00:42:21;11.30;99.90
4295;DHT22;2161;53.634;10.100;2023-04-01T00:44:54;11.30;99.90
4295;DHT22;2161;53.634;10.100;2023-04-01T00:47:20;11.30;99.90
4295;DHT22;2161;53.634;10.100;2023-04-01T00:49:49;11.10;99.90
4295;DHT22;2161;53.634;10.100;2023-04-01T00:52:19;11.00;99.90
4295;DHT22;2161;53.634;10.100;2023-04-01T00:54:50;11.20;99.90
4295;DHT22;2161;53.634;10.100;2023-04-01T00:57:30;11.30;99.90
4295;DHT22;2161;53.634;10.100;2023-04-01T00:59:56;11.30;99.90
4295;DHT22;2161;53.634;10.100;2023-04-01T01:02:22;11.30;99.90
4295;DHT22;2161;53.634;10.100;2023-04-01T01:04:47;11.40;99.90
4295;DHT22;2161;53.634;10.100;2023-04-01T01:07:37;11.30;99.90
4295;DHT22;2161;53.634;10.100;2023-04-01T01:12:45;11.40;99.90
4295;DHT22;2161;53.634;10.100;2023-04-01T01:15:37;11.40;99.90
4295;DHT22;2161;53.634;10.100;2023-04-01T01:26:40;11.30;99.90
4295;DHT22;2161;53.634;10.100;2023-04-01T01:33:33;11.20;99.90
4295;DHT22;2161;53.634;10.100;2023-04-01T01:35:54;11.30;99.90
4295;DHT22;2161;53.634;10.100;2023-04-01T01:38:24;11.30;99.90
4295;DHT22;2161;53.634;10.100;2023-04-01T01:40:52;11.30;99.90
4295;DHT22;2161;53.634;10.100;2023-04-01T01:43:25;11.30;99.90
4295;DHT22;2161;53.634;10.100;2023-04-01T01:45:54;11.30;99.90
4295;DHT22;2161;53.634;10.100;2023-04-01T01:48:22;11.30;99.90
4295;DHT22;2161;53.634;10.100;2023-04-01T01:50:49;11.30;99.90
4295;DHT22;2161;53.634;10.100;2023-04-01T01:53:15;11.30;99.90
4295;DHT22;2161;53.634;10.100;2023-04-01T01:55:43;11.30;99.90
4295;DHT22;2161;53.634;10.100;2023-04-01T01:58:32;11.30;99.90
4295;DHT22;2161;53.634;10.100;2023-04-01T02:01:03;11.30;99.90
4295;DHT22;2161;53.634;10.100;2023-04-01T02:03:34;11.30;99.90
4295;DHT22;2161;53.634;10.100;2023-04-01T02:06:04;11.20;99.90
4295;DHT22;2161;53.634;10.100;2023-04-01T02:08:42;11.30;99.90
4295;DHT22;2161;53.634;10.100;2023-04-01T02:11:12;11.30;99.90
4295;DHT22;2161;53.634;10.100;2023-04-01T02:14:10;11.30;99.90
4295;DHT22;2161;53.634;10.100;2023-04-01T02:19:12;11.20;99.90
4295;DHT22;2161;53.634;10.100;2023-04-01T02:21:39;11.20;99.90
4295;DHT22;2161;53.634;10.100;2023-04-01T02:24:11;11.20;99.90
4295;DHT22;2161;53.634;10.100;2023-04-01T02:26:38;11.20;99.90
4295;DHT22;2161;53.634;10.100;2023-04-01T02:29:07;11.40;99.90
4295;DHT22;2161;53.634;10.100;2023-04-01T02:31:34;11.30;99.90
4295;DHT22;2161;53.634;10.100;2023-04-01T02:34:00;11.40;99.90
4295;DHT22;2161;53.634;10.100;2023-04-01T02:36:25;11.40;99.90
4295;DHT22;2161;53.634;10.100;2023-04-01T02:38:52;11.30;99.90
4295;DHT22;2161;53.634;10.100;2023-04-01T02:41:19;11.40;99.90
4295;DHT22;2161;53.634;10.100;2023-04-01T02:43:46;11.30;99.90
4295;DHT22;2161;53.634;10.100;2023-04-01T02:46:11;11.20;99.90
4295;DHT22;2161;53.634;10.100;2023-04-01T02:48:37;11.20;99.90
4295;DHT22;2161;53.634;10.100;2023-04-01T02:51:03;11.20;99.90
4295;DHT22;2161;53.634;10.100;2023-04-01T02:53:29;11.10;99.90
4295;DHT22;2161;53.634;10.100;2023-04-01T02:55:54;11.10;99.90
4295;DHT22;2161;53.634;10.100;2023-04-01T02:58:21;11.10;99.90
4295;DHT22;2161;53.634;10.100;2023-04-01T03:00:46;11.10;99.90
4295;DHT22;2161;53.634;10.100;2023-04-01T03:03:12;11.10;99.90
4295;DHT22;2161;53.634;10.100;2023-04-01T03:05:39;11.20;99.90
4295;DHT22;2161;53.634;10.100;2023-04-01T03:08:04;11.30;99.90
4295;DHT22;2161;53.634;10.100;2023-04-01T03:10:30;11.40;99.90
4295;DHT22;2161;53.634;10.100;2023-04-01T03:12:56;11.30;99.90
4295;DHT22;2161;53.634;10.100;2023-04-01T03:15:21;11.20;99.90
4295;DHT22;2161;53.634;10.100;2023-04-01T03:17:47;11.20;99.90
4295;DHT22;2161;53.634;10.100;2023-04-01T03:20:13;11.20;99.90
4295;DHT22;2161;53.634;10.100;2023-04-01T03:22:39;11.10;99.90
4295;DHT22;2161;53.634;10.100;2023-04-01T03:25:06;11.10;99.90
4295;DHT22;2161;53.634;10.100;2023-04-01T03:27:33;11.10;99.90
4295;DHT22;2161;53.634;10.100;2023-04-01T03:29:59;11.10;99.90
4295;DHT22;2161;53.634;10.100;2023-04-01T03:32:25;11.20;99.90
4295;DHT22;2161;53.634;10.100;2023-04-01T03:34:52;11.30;99.90
4295;DHT22;2161;53.634;10.100;2023-04-01T03:37:18;11.30;99.90
4295;DHT22;2161;53.634;10.100;2023-04-01T03:39:43;11.30;99.90
4295;DHT22;2161;53.634;10.100;2023-04-01T03:42:09;11.30;99.90
4295;DHT22;2161;53.634;10.100;2023-04-01T03:44:34;11.20;99.90
4295;DHT22;2161;53.634;10.100;2023-04-01T03:47:00;11.30;99.90
4295;DHT22;2161;53.634;10.100;2023-04-01T03:49:26;11.30;99.90
4295;DHT22;2161;53.634;10.100;2023-04-01T03:51:51;11.20;99.90
4295;DHT22;2161;53.634;10.100;2023-04-01T03:54:17;11.30;99.90
4295;DHT22;2161;53.634;10.100;2023-04-01T03:56:44;11.30;99.90
4295;DHT22;2161;53.634;10.100;2023-04-01T03:59:10;11.10;99.90
4295;DHT22;2161;53.634;10.100;2023-04-01T04:01:35;11.30;99.90
4295;DHT22;2161;53.634;10.100;2023-04-01T04:04:01;11.30;99.90
4295;DHT22;2161;53.634;10.100;2023-04-01T04:06:27;11.30;99.90
4295;DHT22;2161;53.634;10.100;2023-04-01T04:08:53;11.20;99.90
4295;DHT22;2161;53.634;10.100;2023-04-01T04:11:19;11.20;99.90
4295;DHT22;2161;53.634;10.100;2023-04-01T04:13:45;11.20;99.90
4295;DHT22;2161;53.634;10.100;2023-04-01T04:16:13;11.00;99.90
4295;DHT22;2161;53.634;10.100;2023-04-01T04:18:39;11.00;99.90
4295;DHT22;2161;53.634;10.100;2023-04-01T04:21:04;11.00;99.90
4295;DHT22;2161;53.634;10.100;2023-04-01T04:23:30;11.00;99.90
4295;DHT22;2161;53.634;10.100;2023-04-01T04:26:02;11.10;99.90
4295;DHT22;2161;53.634;10.100;2023-04-01T04:28:29;11.10;99.90
4295;DHT22;2161;53.634;10.100;2023-04-01T04:30:55;11.20;99.90
4295;DHT22;2161;53.634;10.100;2023-04-01T04:33:21;11.20;99.90
4295;DHT22;2161;53.634;10.100;2023-04-01T04:35:47;11.30;99.90
4295;DHT22;2161;53.634;10.100;2023-04-01T04:38:13;11.30;99.90
4295;DHT22;2161;53.634;10.100;2023-04-01T04:40:39;11.30;99.90
4295;DHT22;2161;53.634;10.100;2023-04-01T04:43:05;11.30;99.90
4295;DHT22;2161;53.634;10.100;2023-04-01T04:45:31;11.30;99.90
4295;DHT22;2161;53.634;10.100;2023-04-01T04:47:56;11.30;99.90
4295;DHT22;2161;53.634;10.100;2023-04-01T04:50:23;11.20;99.90
4295;DHT22;2161;53.634;10.100;2023-04-01T04:52:48;11.20;99.90
4295;DHT22;2161;53.634;10.100;2023-04-01T04:55:14;11.30;99.90
4295;DHT22;2161;53.634;10.100;2023-04-01T04:57:40;11.30;99.90
4295;DHT22;2161;53.634;10.100;2023-04-01T05:00:07;11.00;99.90
4295;DHT22;2161;53.634;10.100;2023-04-01T05:02:33;10.80;99.90
4295;DHT22;2161;53.634;10.100;2023-04-01T05:04:59;10.90;99.90
4295;DHT22;2161;53.634;10.100;2023-04-01T05:07:24;10.70;99.90
4295;DHT22;2161;53.634;10.100;2023-04-01T05:09:50;10.50;99.90
4295;DHT22;2161;53.634;10.100;2023-04-01T05:12:16;10.50;99.90
4295;DHT22;2161;53.634;10.100;2023-04-01T05:14:41;10.30;99.90
4295;DHT22;2161;53.634;10.100;2023-04-01T05:17:11;10.20;99.90
4295;DHT22;2161;53.634;10.100;2023-04-01T05:19:37;10.00;99.90
4295;DHT22;2161;53.634;10.100;2023-04-01T05:22:03;10.00;99.90
4295;DHT22;2161;53.634;10.100;2023-04-01T05:24:30;10.20;99.90
4295;DHT22;2161;53.634;10.100;2023-04-01T05:26:55;10.00;99.90
4295;DHT22;2161;53.634;10.100;2023-04-01T05:29:23;10.00;99.90
4295;DHT22;2161;53.634;10.100;2023-04-01T05:31:48;10.10;99.90
4295;DHT22;2161;53.634;10.100;2023-04-01T05:34:14;10.10;99.90
4295;DHT22;2161;53.634;10.100;2023-04-01T05:36:40;10.20;99.90
4295;DHT22;2161;53.634;10.100;2023-04-01T05:39:07;10.30;99.90
4295;DHT22;2161;53.634;10.100;2023-04-01T05:41:35;10.30;99.90
4295;DHT22;2161;53.634;10.100;2023-04-01T05:44:01;10.30;99.90
4295;DHT22;2161;53.634;10.100;2023-04-01T05:46:26;10.20;99.90
4295;DHT22;2161;53.634;10.100;2023-04-01T05:48:52;10.10;99.90
4295;DHT22;2161;53.634;10.100;2023-04-01T05:51:17;10.10;99.90
4295;DHT22;2161;53.634;10.100;2023-04-01T05:53:43;10.10;99.90
4295;DHT22;2161;53.634;10.100;2023-04-01T05:56:08;9.90;99.90
4295;DHT22;2161;53.634;10.100;2023-04-01T05:58:37;9.60;99.90
4295;DHT22;2161;53.634;10.100;2023-04-01T06:01:06;9.60;99.90
4295;DHT22;2161;53.634;10.100;2023-04-01T06:03:32;9.70;99.90
4295;DHT22;2161;53.634;10.100;2023-04-01T06:05:57;9.60;99.90
4295;DHT22;2161;53.634;10.100;2023-04-01T06:08:24;9.70;99.90
4295;DHT22;2161;53.634;10.100;2023-04-01T06:13:46;9.50;99.90
4295;DHT22;2161;53.634;10.100;2023-04-01T06:22:17;9.40;99.90
4295;DHT22;2161;53.634;10.100;2023-04-01T06:28:00;9.30;99.90
4295;DHT22;2161;53.634;10.100;2023-04-01T06:54:49;9.10;99.90
4295;DHT22;2161;53.634;10.100;2023-04-01T06:57:28;9.10;99.90
4295;DHT22;2161;53.634;10.100;2023-04-01T06:59:57;9.10;99.90
4295;DHT22;2161;53.634;10.100;2023-04-01T07:02:36;8.80;99.90
4295;DHT22;2161;53.634;10.100;2023-04-01T07:05:04;9.00;99.90
4295;DHT22;2161;53.634;10.100;2023-04-01T07:07:36;8.70;99.90
4295;DHT22;2161;53.634;10.100;2023-04-01T07:10:14;8.90;99.90
4295;DHT22;2161;53.634;10.100;2023-04-01T07:12:53;9.10;99.90
4295;DHT22;2161;53.634;10.100;2023-04-01T07:15:21;9.20;99.90
4295;DHT22;2161;53.634;10.100;2023-04-01T07:17:53;9.00;99.90
4295;DHT22;2161;53.634;10.100;2023-04-01T07:20:25;8.70;99.90
4295;DHT22;2161;53.634;10.100;2023-04-01T07:22:56;9.00;99.90
4295;DHT22;2161;53.634;10.100;2023-04-01T07:25:25;9.00;99.90
4295;DHT22;2161;53.634;10.100;2023-04-01T07:27:53;9.20;99.90
4295;DHT22;2161;53.634;10.100;2023-04-01T07:30:23;9.30;99.90
4295;DHT22;2161;53.634;10.100;2023-04-01T07:35:33;9.10;99.90
4295;DHT22;2161;53.634;10.100;2023-04-01T07:38:46;9.10;99.90
4295;DHT22;2161;53.634;10.100;2023-04-01T07:41:32;8.80;99.90
4295;DHT22;2161;53.634;10.100;2023-04-01T07:46:54;9.10;99.90
4295;DHT22;2161;53.634;10.100;2023-04-01T07:49:33;8.70;99.90
4295;DHT22;2161;53.634;10.100;2023-04-01T07:52:26;8.80;99.90
4295;DHT22;2161;53.634;10.100;2023-04-01T07:55:15;8.80;99.90
4295;DHT22;2161;53.634;10.100;2023-04-01T07:57:49;8.70;99.90
4295;DHT22;2161;53.634;10.100;2023-04-01T08:00:22;8.70;99.90
4295;DHT22;2161;53.634;10.100;2023-04-01T08:03:10;8.60;99.90
4295;DHT22;2161;53.634;10.100;2023-04-01T08:05:59;8.80;99.90
4295;DHT22;2161;53.634;10.100;2023-04-01T08:13:54;8.60;99.90
4295;DHT22;2161;53.634;10.100;2023-04-01T08:16:42;8.80;99.90
4295;DHT22;2161;53.634;10.100;2023-04-01T08:19:34;8.60;99.90
4295;DHT22;2161;53.634;10.100;2023-04-01T08:22:09;8.50;99.90
4295;DHT22;2161;53.634;10.100;2023-04-01T08:24:44;8.60;99.90
4295;DHT22;2161;53.634;10.100;2023-04-01T08:27:20;8.60;99.90
4295;DHT22;2161;53.634;10.100;2023-04-01T08:30:18;8.50;99.90
4295;DHT22;2161;53.634;10.100;2023-04-01T08:35:37;8.70;99.90
4295;DHT22;2161;53.634;10.100;2023-04-01T08:38:19;8.60;99.90
4295;DHT22;2161;53.634;10.100;2023-04-01T08:46:40;8.50;99.90
4295;DHT22;2161;53.634;10.100;2023-04-01T08:49:31;8.30;99.90
4295;DHT22;2161;53.634;10.100;2023-04-01T08:54:55;8.50;99.90
4295;DHT22;2161;53.634;10.100;2023-04-01T09:00:15;8.70;99.90
4295;DHT22;2161;53.634;10.100;2023-04-01T09:14:56;8.90;99.90
4295;DHT22;2161;53.634;10.100;2023-04-01T09:20:52;8.80;99.90
4295;DHT22;2161;53.634;10.100;2023-04-01T09:29:06;8.90;99.90
4295;DHT22;2161;53.634;10.100;2023-04-01T09:36:47;8.80;99.90
4295;DHT22;2161;53.634;10.100;2023-04-01T09:45:07;8.80;99.90
4295;DHT22;2161;53.634;10.100;2023-04-01T09:48:00;8.90;99.90
4295;DHT22;2161;53.634;10.100;2023-04-01T09:53:14;8.60;99.90
4295;DHT22;2161;53.634;10.100;2023-04-01T09:56:10;8.70;99.90
4295;DHT22;2161;53.634;10.100;2023-04-01T10:07:22;9.00;99.90
4295;DHT22;2161;53.634;10.100;2023-04-01T10:13:16;9.10;99.90
4295;DHT22;2161;53.634;10.100;2023-04-01T10:22:43;8.80;99.90
4295;DHT22;2161;53.634;10.100;2023-04-01T10:36:22;9.00;99.90
4295;DHT22;2161;53.634;10.100;2023-04-01T10:39:17;9.00;99.90
4295;DHT22;2161;53.634;10.100;2023-04-01T10:44:58;8.80;99.90
4295;DHT22;2161;53.634;10.100;2023-04-01T10:50:42;9.00;99.90
4295;DHT22;2161;53.634;10.100;2023-04-01T11:01:47;8.90;99.90
4295;DHT22;2161;53.634;10.100;2023-04-01T11:04:51;8.90;99.90
4295;DHT22;2161;53.634;10.100;2023-04-01T11:07:38;9.00;99.90
4295;DHT22;2161;53.634;10.100;2023-04-01T11:34:51;8.60;99.90
4295;DHT22;2161;53.634;10.100;2023-04-01T11:40:06;8.70;99.90
4295;DHT22;2161;53.634;10.100;2023-04-01T11:43:04;8.60;99.90
4295;DHT22;2161;53.634;10.100;2023-04-01T11:51:28;8.80;99.90
4295;DHT22;2161;53.634;10.100;2023-04-01T11:56:48;8.80;99.90
4295;DHT22;2161;53.634;10.100;2023-04-01T12:02:42;8.70;99.90
4295;DHT22;2161;53.634;10.100;2023-04-01T12:05:22;8.70;99.90
4295;DHT22;2161;53.634;10.100;2023-04-01T12:13:34;8.50;99.90
4295;DHT22;2161;53.634;10.100;2023-04-01T12:16:22;8.40;99.90
4295;DHT22;2161;53.634;10.100;2023-04-01T12:33:29;8.40;99.90
4295;DHT22;2161;53.634;10.100;2023-04-01T12:49:22;8.40;99.90
4295;DHT22;2161;53.634;10.100;2023-04-01T12:58:11;8.30;99.90
4295;DHT22;2161;53.634;10.100;2023-04-01T13:06:19;8.40;99.90
4295;DHT22;2161;53.634;10.100;2023-04-01T13:09:08;8.30;99.90
4295;DHT22;2161;53.634;10.100;2023-04-01T13:17:20;8.20;99.90
4295;DHT22;2161;53.634;10.100;2023-04-01T13:25:34;8.30;99.90
4295;DHT22;2161;53.634;10.100;2023-04-01T13:28:17;8.40;99.90
4295;DHT22;2161;53.634;10.100;2023-04-01T13:33:27;8.30;99.90
4295;DHT22;2161;53.634;10.100;2023-04-01T13:38:52;8.40;99.90
4295;DHT22;2161;53.634;10.100;2023-04-01T13:41:31;8.30;99.90
4295;DHT22;2161;53.634;10.100;2023-04-01T13:43:59;8.10;99.90
4295;DHT22;2161;53.634;10.100;2023-04-01T13:46:53;8.00;99.90
4295;DHT22;2161;53.634;10.100;2023-04-01T13:52:20;8.10;99.90
4295;DHT22;2161;53.634;10.100;2023-04-01T13:58:21;8.20;99.90
4295;DHT22;2161;53.634;10.100;2023-04-01T14:21:47;8.00;99.90
4295;DHT22;2161;53.634;10.100;2023-04-01T14:24:28;8.20;99.90
4295;DHT22;2161;53.634;10.100;2023-04-01T14:27:01;8.20;99.90
4295;DHT22;2161;53.634;10.100;2023-04-01T14:40:52;7.90;99.90
4295;DHT22;2161;53.634;10.100;2023-04-01T14:43:42;7.70;99.90
4295;DHT22;2161;53.634;10.100;2023-04-01T14:46:34;7.70;99.90
4295;DHT22;2161;53.634;10.100;2023-04-01T14:52:23;7.80;99.90
4295;DHT22;2161;53.634;10.100;2023-04-01T14:54:51;7.80;99.90
4295;DHT22;2161;53.634;10.100;2023-04-01T14:57:29;7.90;99.90
4295;DHT22;2161;53.634;10.100;2023-04-01T15:00:01;7.80;99.90
4295;DHT22;2161;53.634;10.100;2023-04-01T15:02:57;7.90;99.90
4295;DHT22;2161;53.634;10.100;2023-04-01T15:06:35;7.80;99.90
4295;DHT22;2161;53.634;10.100;2023-04-01T15:08:34;7.70;99.90
4295;DHT22;2161;53.634;10.100;2023-04-01T15:11:27;7.50;99.90
4295;DHT22;2161;53.634;10.100;2023-04-01T15:25:45;7.80;99.90
4295;DHT22;2161;53.634;10.100;2023-04-01T15:28:39;7.90;99.90
4295;DHT22;2161;53.634;10.100;2023-04-01T15:31:17;7.70;99.90
4295;DHT22;2161;53.634;10.100;2023-04-01T15:34:08;7.60;99.90
4295;DHT22;2161;53.634;10.100;2023-04-01T15:45:01;7.80;99.90
4295;DHT22;2161;53.634;10.100;2023-04-01T15:47:41;7.60;99.90
4295;DHT22;2161;53.634;10.100;2023-04-01T15:53:07;7.70;99.90
4295;DHT22;2161;53.634;10.100;2023-04-01T15:55:57;7.80;99.90
4295;DHT22;2161;53.634;10.100;2023-04-01T16:10:05;7.30;99.90
4295;DHT22;2161;53.634;10.100;2023-04-01T16:18:44;7.00;99.90
4295;DHT22;2161;53.634;10.100;2023-04-01T16:24:30;7.20;99.90
4295;DHT22;2161;53.634;10.100;2023-04-01T16:33:12;7.50;99.90
4295;DHT22;2161;53.634;10.100;2023-04-01T16:36:04;7.40;99.90
4295;DHT22;2161;53.634;10.100;2023-04-01T16:39:47;6.90;99.90
4295;DHT22;2161;53.634;10.100;2023-04-01T16:42:46;7.00;99.90
4295;DHT22;2161;53.634;10.100;2023-04-01T16:47:36;7.30;99.90
4295;DHT22;2161;53.634;10.100;2023-04-01T16:53:01;6.90;99.90
4295;DHT22;2161;53.634;10.100;2023-04-01T16:55:50;7.10;99.90
4295;DHT22;2161;53.634;10.100;2023-04-01T16:58:48;7.00;99.90
4295;DHT22;2161;53.634;10.100;2023-04-01T17:01:18;6.90;99.90
4295;DHT22;2161;53.634;10.100;2023-04-01T17:03:51;6.90;99.90
4295;DHT22;2161;53.634;10.100;2023-04-01T17:06:23;7.10;99.90
4295;DHT22;2161;53.634;10.100;2023-04-01T17:09:21;7.10;99.90
4295;DHT22;2161;53.634;10.100;2023-04-01T17:12:25;7.10;99.90
4295;DHT22;2161;53.634;10.100;2023-04-01T17:15:04;6.80;99.90
4295;DHT22;2161;53.634;10.100;2023-04-01T17:17:45;6.80;99.90
4295;DHT22;2161;53.634;10.100;2023-04-01T17:26:14;7.00;99.90
4295;DHT22;2161;53.634;10.100;2023-04-01T17:32:15;7.30;99.90
4295;DHT22;2161;53.634;10.100;2023-04-01T17:35:10;7.30;99.90
4295;DHT22;2161;53.634;10.100;2023-04-01T17:42:57;6.90;99.90
4295;DHT22;2161;53.634;10.100;2023-04-01T17:45:49;7.00;99.90
4295;DHT22;2161;53.634;10.100;2023-04-01T17:51:40;6.70;99.90
4295;DHT22;2161;53.634;10.100;2023-04-01T17:54:25;7.00;99.90
4295;DHT22;2161;53.634;10.100;2023-04-01T18:00:16;7.00;99.90
4295;DHT22;2161;53.634;10.100;2023-04-01T18:03:00;6.60;99.90
4295;DHT22;2161;53.634;10.100;2023-04-01T18:22:39;7.00;99.90
4295;DHT22;2161;53.634;10.100;2023-04-01T18:25:36;6.90;99.90
4295;DHT22;2161;53.634;10.100;2023-04-01T18:28:20;6.90;99.90
4295;DHT22;2161;53.634;10.100;2023-04-01T18:31:39;6.90;99.90
4295;DHT22;2161;53.634;10.100;2023-04-01T18:33:56;6.90;99.90
4295;DHT22;2161;53.634;10.100;2023-04-01T18:36:51;6.60;99.90
4295;DHT22;2161;53.634;10.100;2023-04-01T18:39:22;6.70;99.90
4295;DHT22;2161;53.634;10.100;2023-04-01T18:45:10;6.40;99.90
4295;DHT22;2161;53.634;10.100;2023-04-01T18:47:43;6.60;99.90
4295;DHT22;2161;53.634;10.100;2023-04-01T18:53:24;6.30;99.90
4295;DHT22;2161;53.634;10.100;2023-04-01T18:56:00;6.20;99.90
4295;DHT22;2161;53.634;10.100;2023-04-01T19:01:06;6.10;99.90
4295;DHT22;2161;53.634;10.100;2023-04-01T19:08:53;6.20;99.90
4295;DHT22;2161;53.634;10.100;2023-04-01T19:16:49;6.30;99.90
4295;DHT22;2161;53.634;10.100;2023-04-01T19:19:33;6.10;99.90
4295;DHT22;2161;53.634;10.100;2023-04-01T19:23:07;6.20;99.90
4295;DHT22;2161;53.634;10.100;2023-04-01T19:25:25;6.20;99.90
4295;DHT22;2161;53.634;10.100;2023-04-01T19:35:49;6.20;99.90
4295;DHT22;2161;53.634;10.100;2023-04-01T19:46:55;6.10;99.90
4295;DHT22;2161;53.634;10.100;2023-04-01T19:52:14;6.10;99.90
4295;DHT22;2161;53.634;10.100;2023-04-01T19:54:53;6.20;99.90
4295;DHT22;2161;53.634;10.100;2023-04-01T19:57:30;6.30;99.90
4295;DHT22;2161;53.634;10.100;2023-04-01T20:03:44;6.00;99.90
4295;DHT22;2161;53.634;10.100;2023-04-01T20:09:06;6.10;99.90
4295;DHT22;2161;53.634;10.100;2023-04-01T20:12:17;6.10;99.90
4295;DHT22;2161;53.634;10.100;2023-04-01T20:14:50;6.10;99.90
4295;DHT22;2161;53.634;10.100;2023-04-01T20:17:22;6.30;99.90
4295;DHT22;2161;53.634;10.100;2023-04-01T20:22:27;5.70;99.90
4295;DHT22;2161;53.634;10.100;2023-04-01T20:25:06;5.60;99.90
4295;DHT22;2161;53.634;10.100;2023-04-01T20:27:43;5.40;99.90
4295;DHT22;2161;53.634;10.100;2023-04-01T20:30:26;5.60;99.90
4295;DHT22;2161;53.634;10.100;2023-04-01T20:36:05;5.50;99.90
4295;DHT22;2161;53.634;10.100;2023-04-01T20:41:35;5.40;99.90
4295;DHT22;2161;53.634;10.100;2023-04-01T20:44:07;5.60;99.90
4295;DHT22;2161;53.634;10.100;2023-04-01T20:46:48;5.40;99.90
4295;DHT22;2161;53.634;10.100;2023-04-01T20:49:41;5.40;99.90
4295;DHT22;2161;53.634;10.100;2023-04-01T20:57:42;5.20;99.90
4295;DHT22;2161;53.634;10.100;2023-04-01T21:00:19;5.40;99.90
4295;DHT22;2161;53.634;10.100;2023-04-01T21:02:59;5.30;99.90
4295;DHT22;2161;53.634;10.100;2023-04-01T21:05:45;5.40;99.90
4295;DHT22;2161;53.634;10.100;2023-04-01T21:11:51;5.50;99.90
4295;DHT22;2161;53.634;10.100;2023-04-01T21:17:08;5.40;99.90
4295;DHT22;2161;53.634;10.100;2023-04-01T21:20:00;5.40;99.90
4295;DHT22;2161;53.634;10.100;2023-04-01T21:28:07;5.60;99.90
4295;DHT22;2161;53.634;10.100;2023-04-01T21:30:44;5.30;99.90
4295;DHT22;2161;53.634;10.100;2023-04-01T21:36:43;5.40;99.90
4295;DHT22;2161;53.634;10.100;2023-04-01T21:50:46;4.90;99.90
4295;DHT22;2161;53.634;10.100;2023-04-01T21:56:29;5.00;99.90
4295;DHT22;2161;53.634;10.100;2023-04-01T21:59:05;5.10;99.90
4295;DHT22;2161;53.634;10.100;2023-04-01T22:04:47;4.80;99.90
4295;DHT22;2161;53.634;10.100;2023-04-01T22:07:17;5.00;99.90
4295;DHT22;2161;53.634;10.100;2023-04-01T22:12:54;5.30;99.90
4295;DHT22;2161;53.634;10.100;2023-04-01T22:15:46;5.00;99.90
4295;DHT22;2161;53.634;10.100;2023-04-01T22:18:24;5.00;99.90
4295;DHT22;2161;53.634;10.100;2023-04-01T22:26:37;5.10;99.90
4295;DHT22;2161;53.634;10.100;2023-04-01T22:31:52;5.00;99.90
4295;DHT22;2161;53.634;10.100;2023-04-01T22:34:32;4.80;99.90
4295;DHT22;2161;53.634;10.100;2023-04-01T22:39:45;4.90;99.90
4295;DHT22;2161;53.634;10.100;2023-04-01T22:50:18;4.70;99.90
4295;DHT22;2161;53.634;10.100;2023-04-01T22:52:47;4.60;99.90
4295;DHT22;2161;53.634;10.100;2023-04-01T22:55:17;4.80;99.90
4295;DHT22;2161;53.634;10.100;2023-04-01T22:57:52;4.80;99.90
4295;DHT22;2161;53.634;10.100;2023-04-01T23:00:27;4.70;99.90
4295;DHT22;2161;53.634;10.100;2023-04-01T23:03:22;4.80;99.90
4295;DHT22;2161;53.634;10.100;2023-04-01T23:05:55;4.90;99.90
4295;DHT22;2161;53.634;10.100;2023-04-01T23:11:01;4.90;99.90
4295;DHT22;2161;53.634;10.100;2023-04-01T23:13:51;4.60;99.90
4295;DHT22;2161;53.634;10.100;2023-04-01T23:16:25;4.70;99.90
4295;DHT22;2161;53.634;10.100;2023-04-01T23:19:02;4.80;99.90
4295;DHT22;2161;53.634;10.100;2023-04-01T23:21:44;4.80;99.90
4295;DHT22;2161;53.634;10.100;2023-04-01T23:24:25;5.00;99.90
4295;DHT22;2161;53.634;10.100;2023-04-01T23:29:35;4.70;99.90
4295;DHT22;2161;53.634;10.100;2023-04-01T23:32:13;4.40;99.90
4295;DHT22;2161;53.634;10.100;2023-04-01T23:34:49;4.50;99.90
4295;DHT22;2161;53.634;10.100;2023-04-01T23:37:17;4.70;99.90
4295;DHT22;2161;53.634;10.100;2023-04-01T23:39:53;4.60;99.90
4295;DHT22;2161;53.634;10.100;2023-04-01T23:42:28;4.20;99.90
4295;DHT22;2161;53.634;10.100;2023-04-01T23:45:03;4.50;99.90
4295;DHT22;2161;53.634;10.100;2023-04-01T23:47:34;4.70;99.90
4295;DHT22;2161;53.634;10.100;2023-04-01T23:50:45;4.70;99.90
4295;DHT22;2161;53.634;10.100;2023-04-01T23:53:00;4.60;99.90
4295;DHT22;2161;53.634;10.100;2023-04-01T23:55:31;4.70;99.90
